Fire Weather Observation
Issued by NWS Grand Junction, CO

Home | Current Version | Previous Version | Graphics & Text | Print | Product List | Glossary On
Versions: 1 2 3 4 5 6 7 8 9 10 11 12 13 14 15 16 17 18 19 20 21 22 23 24 25 26 27 28 29 30 31 32 33 34 35 36 37 38 39 40 41 42 43 44 45 46 47 48 49 50
000
SHUS65 KGJT 062016
FWOGJT

DAILY FIRE WEATHER OBSERVATION
NATIONAL WEATHER SERVICE GRAND JUNCTION CO
212 PM MDT MON JUL 6 2015

STATE OF THE WEATHER (W)               2
DRY BULB TEMPERATURE                   84   DEGREES FAHRENHEIT
RELATIVE HUMIDITY (RH)                 36   PERCENT
LIGHTNING ACTIVITY LEVEL
  (LAL - MIDNIGHT TO 2 PM)             3
WIND DIRECTION                         225  DEGREES (C IF CALM)
WIND SPEED                             7    MPH
MAX TEMP (2 PM - 2 PM)                 84   DEGREES FAHRENHEIT
MIN TEMP (2 PM - 2 PM)                 60   DEGREES FAHRENHEIT
MAX RH (2 PM - 2 PM)                   93   PERCENT
MIN RH (2 PM - 2 PM)                   36   PERCENT
PCPN DURATION                          0.7  HOURS
PCPN AMT (2 PM - 2 PM)                 0.11 INCHES
LAL (2 PM - 2 PM)                      5

$$

METAR KGJT 061953Z 22006KT 10SM FEW070 29/12 A3010 RMK AO2 LTG
      DSNT N SLP123 T02890122



USA.gov is the U.S. government's official web portal to all federal, state and local government web resources and services.